La rose des vents
Donnes mto: Semaine 11/06/07 - 17/06/07 (S 24)
Date Horaire Temp. E. Hum. E. P.atmo. Pluie Vent 1mn Direction Ensoleilleme Ev.Tr. Solaire P. de rose Temp au vent Rafales
11/06/2007 00:00 19,2 C 82 % 1012,6 hPa 0,0 l/m 0,9 km/h (0 Bft) O-NO 0,00 h 0,025 mm 0 W/m 16,0 C 19,2 C 2,0 km/h (1 Bft)
11/06/2007 01:00 18,8 C 83 % 1012,7 hPa 0,0 l/m 3,6 km/h (1 Bft) S-SO 0,00 h 0,025 mm 0 W/m 15,9 C 18,8 C 5,0 km/h (1 Bft)
11/06/2007 02:00 18,5 C 86 % 1013,0 hPa 0,0 l/m 5,0 km/h (1 Bft) SO 0,00 h 0,025 mm 0 W/m 16,1 C 18,5 C 6,6 km/h (2 Bft)
11/06/2007 03:00 18,1 C 87 % 1012,9 hPa 0,0 l/m 2,8 km/h (1 Bft) SO 0,00 h 0,025 mm 0 W/m 15,9 C 18,1 C 4,1 km/h (1 Bft)
11/06/2007 04:00 18,1 C 88 % 1012,6 hPa 0,0 l/m 2,3 km/h (1 Bft) SO 0,00 h 0,025 mm 0 W/m 16,0 C 18,1 C 3,4 km/h (1 Bft)
11/06/2007 05:00 17,9 C 90 % 1012,4 hPa 0,0 l/m 3,0 km/h (1 Bft) SO 0,00 h 0,025 mm 8 W/m 16,2 C 17,9 C 4,4 km/h (1 Bft)
11/06/2007 06:00 18,0 C 90 % 1012,7 hPa 0,0 l/m 4,6 km/h (1 Bft) O 0,20 h 0,000 mm 29 W/m 16,4 C 18,0 C 6,5 km/h (2 Bft)
11/06/2007 07:00 18,9 C 88 % 1012,5 hPa 0,0 l/m 0,5 km/h (0 Bft) O 0,50 h 0,025 mm 136 W/m 16,8 C 18,9 C 1,8 km/h (1 Bft)
11/06/2007 08:00 21,5 C 76 % 1012,2 hPa 0,0 l/m 1,4 km/h (1 Bft) E 1,00 h 0,076 mm 354 W/m 17,1 C 21,5 C 3,2 km/h (1 Bft)
11/06/2007 09:00 23,2 C 70 % 1012,1 hPa 0,0 l/m 4,3 km/h (1 Bft) E 1,00 h 0,229 mm 511 W/m 17,5 C 23,2 C 7,1 km/h (2 Bft)
11/06/2007 10:00 23,9 C 68 % 1012,2 hPa 0,0 l/m 8,3 km/h (2 Bft) S 1,00 h 0,330 mm 628 W/m 17,6 C 23,9 C 12,3 km/h (3 Bft)
11/06/2007 11:00 25,1 C 66 % 1012,7 hPa 0,0 l/m 10,9 km/h (2 Bft) E 1,00 h 0,432 mm 774 W/m 18,3 C 25,1 C 16,3 km/h (3 Bft)
11/06/2007 12:00 26,0 C 61 % 1012,8 hPa 0,0 l/m 12,1 km/h (2 Bft) E-NE 0,92 h 0,533 mm 815 W/m 18,0 C 26,0 C 17,4 km/h (3 Bft)
11/06/2007 13:00 25,6 C 65 % 1012,6 hPa 0,0 l/m 14,7 km/h (3 Bft) E 1,00 h 0,610 mm 887 W/m 18,7 C 25,6 C 20,1 km/h (4 Bft)
11/06/2007 14:00 25,3 C 61 % 1012,5 hPa 0,0 l/m 10,0 km/h (2 Bft) S 1,00 h 0,635 mm 864 W/m 17,3 C 25,3 C 16,3 km/h (3 Bft)
11/06/2007 15:00 25,1 C 69 % 1012,0 hPa 0,0 l/m 9,1 km/h (2 Bft) E 0,78 h 0,610 mm 713 W/m 19,0 C 25,1 C 15,4 km/h (3 Bft)
11/06/2007 16:00 24,5 C 72 % 1011,7 hPa 0,0 l/m 8,9 km/h (2 Bft) E 0,75 h 0,483 mm 597 W/m 19,1 C 24,5 C 13,5 km/h (3 Bft)
11/06/2007 17:00 24,0 C 73 % 1011,2 hPa 0,0 l/m 8,7 km/h (2 Bft) E 0,83 h 0,406 mm 503 W/m 19,0 C 24,0 C 12,6 km/h (3 Bft)
11/06/2007 18:00 23,1 C 77 % 1010,7 hPa 0,0 l/m 5,8 km/h (2 Bft) E 0,95 h 0,356 mm 336 W/m 18,8 C 23,1 C 8,8 km/h (2 Bft)
11/06/2007 19:00 22,8 C 78 % 1010,2 hPa 0,0 l/m 3,1 km/h (1 Bft) E 0,98 h 0,229 mm 179 W/m 18,8 C 22,8 C 5,7 km/h (1 Bft)
11/06/2007 20:00 20,6 C 86 % 1010,1 hPa 0,0 l/m 2,3 km/h (1 Bft) E 0,03 h 0,127 mm 39 W/m 18,2 C 20,6 C 4,1 km/h (1 Bft)
11/06/2007 21:00 19,4 C 90 % 1010,3 hPa 0,0 l/m 0,6 km/h (0 Bft) E 0,00 h 0,025 mm 5 W/m 17,8 C 19,4 C 1,5 km/h (1 Bft)
11/06/2007 22:00 19,0 C 93 % 1010,5 hPa 0,0 l/m 0,3 km/h (0 Bft) E 0,00 h 0,000 mm 0 W/m 17,7 C 19,0 C 0,8 km/h (0 Bft)
11/06/2007 23:00 19,3 C 93 % 1011,0 hPa 0,0 l/m 0,1 km/h (0 Bft) E 0,00 h 0,000 mm 0 W/m 18,1 C 19,3 C 0,6 km/h (0 Bft)
12/06/2007 00:00 19,3 C 93 % 1010,8 hPa 0,0 l/m 1,2 km/h (1 Bft) E 0,00 h 0,000 mm 0 W/m 18,1 C 19,3 C 2,4 km/h (1 Bft)
12/06/2007 01:00 19,1 C 93 % 1010,7 hPa 0,0 l/m 3,4 km/h (1 Bft) SO 0,00 h 0,025 mm 0 W/m 18,0 C 19,1 C 5,3 km/h (1 Bft)
12/06/2007 02:00 19,1 C 93 % 1010,3 hPa 0,0 l/m 1,5 km/h (1 Bft) SO 0,00 h 0,025 mm 0 W/m 17,9 C 19,1 C 2,9 km/h (1 Bft)
12/06/2007 03:00 18,8 C 93 % 1009,9 hPa 0,0 l/m 0,3 km/h (0 Bft) SO 0,00 h 0,025 mm 0 W/m 17,6 C 18,8 C 1,4 km/h (1 Bft)
12/06/2007 04:00 18,6 C 93 % 1009,7 hPa 0,0 l/m 1,8 km/h (1 Bft) SO 0,00 h 0,000 mm 0 W/m 17,5 C 18,6 C 2,9 km/h (1 Bft)
12/06/2007 05:00 18,1 C 94 % 1009,8 hPa 0,0 l/m 3,2 km/h (1 Bft) O-NO 0,00 h 0,025 mm 5 W/m 17,1 C 18,1 C 5,1 km/h (1 Bft)
12/06/2007 06:00 17,6 C 94 % 1009,7 hPa 0,0 l/m 4,9 km/h (1 Bft) NO 0,00 h 0,000 mm 31 W/m 16,6 C 17,6 C 7,7 km/h (2 Bft)
12/06/2007 07:00 18,9 C 85 % 1009,6 hPa 0,0 l/m 1,0 km/h (0 Bft) NO 0,07 h 0,025 mm 120 W/m 16,3 C 18,9 C 1,9 km/h (1 Bft)
12/06/2007 08:00 21,2 C 75 % 1009,8 hPa 0,0 l/m 1,1 km/h (1 Bft) E 0,60 h 0,076 mm 303 W/m 16,5 C 21,2 C 2,4 km/h (1 Bft)
12/06/2007 09:00 22,8 C 70 % 1009,9 hPa 0,0 l/m 5,5 km/h (1 Bft) E 0,63 h 0,203 mm 434 W/m 17,0 C 22,8 C 8,7 km/h (2 Bft)
12/06/2007 10:00 23,0 C 71 % 1009,9 hPa 0,0 l/m 7,4 km/h (2 Bft) S 0,53 h 0,305 mm 559 W/m 17,4 C 23,0 C 12,0 km/h (2 Bft)
12/06/2007 11:00 23,6 C 71 % 1009,7 hPa 0,0 l/m 8,7 km/h (2 Bft) E 0,42 h 0,381 mm 529 W/m 18,0 C 23,6 C 14,2 km/h (3 Bft)
12/06/2007 12:00 25,0 C 65 % 1009,8 hPa 0,0 l/m 11,1 km/h (2 Bft) E 0,73 h 0,406 mm 765 W/m 18,0 C 25,0 C 17,3 km/h (3 Bft)
12/06/2007 13:00 24,8 C 67 % 1009,9 hPa 0,0 l/m 11,1 km/h (2 Bft) E 0,90 h 0,533 mm 879 W/m 18,1 C 24,8 C 17,3 km/h (3 Bft)
12/06/2007 14:00 25,1 C 67 % 1009,5 hPa 0,0 l/m 9,7 km/h (2 Bft) E 1,00 h 0,610 mm 917 W/m 18,5 C 25,1 C 15,1 km/h (3 Bft)
12/06/2007 15:00 24,6 C 68 % 1009,2 hPa 0,0 l/m 8,5 km/h (2 Bft) E 0,73 h 0,610 mm 670 W/m 18,3 C 24,6 C 13,8 km/h (3 Bft)
12/06/2007 16:00 22,6 C 75 % 1008,9 hPa 0,0 l/m 5,0 km/h (1 Bft) SE 0,17 h 0,432 mm 241 W/m 17,9 C 22,6 C 8,6 km/h (2 Bft)
12/06/2007 17:00 22,1 C 76 % 1008,9 hPa 0,0 l/m 3,5 km/h (1 Bft) E 0,00 h 0,178 mm 98 W/m 17,6 C 22,1 C 5,7 km/h (1 Bft)
12/06/2007 18:00 21,0 C 82 % 1008,5 hPa 0,0 l/m 1,1 km/h (0 Bft) E 0,00 h 0,076 mm 41 W/m 17,7 C 21,0 C 1,9 km/h (1 Bft)
12/06/2007 19:00 20,9 C 82 % 1008,3 hPa 0,0 l/m 0,0 km/h (0 Bft) N 0,00 h 0,025 mm 62 W/m 17,8 C 20,9 C 0,1 km/h (0 Bft)
12/06/2007 20:00 20,4 C 84 % 1008,0 hPa 0,0 l/m 0,3 km/h (0 Bft) E 0,00 h 0,051 mm 21 W/m 17,5 C 20,4 C 0,8 km/h (0 Bft)
12/06/2007 21:00 19,8 C 86 % 1008,3 hPa 0,0 l/m 1,1 km/h (1 Bft) E-SE 0,00 h 0,025 mm 5 W/m 17,3 C 19,8 C 2,1 km/h (1 Bft)
12/06/2007 22:00 19,4 C 88 % 1008,8 hPa 0,0 l/m 0,6 km/h (0 Bft) O 0,00 h 0,000 mm 0 W/m 17,3 C 19,4 C 1,4 km/h (1 Bft)
12/06/2007 23:00 18,7 C 91 % 1008,5 hPa 0,0 l/m 0,1 km/h (0 Bft) O 0,00 h 0,025 mm 0 W/m 17,2 C 18,7 C 0,2 km/h (0 Bft)
13/06/2007 00:00 18,7 C 92 % 1008,1 hPa 0,0 l/m 0,0 km/h (0 Bft) O 0,00 h 0,025 mm 0 W/m 17,3 C 18,7 C 0,2 km/h (0 Bft)
13/06/2007 01:00 18,6 C 92 % 1007,9 hPa 0,0 l/m 0,0 km/h (0 Bft) N 0,00 h 0,000 mm 0 W/m 17,3 C 18,6 C 0,0 km/h (0 Bft)
13/06/2007 02:00 19,1 C 93 % 1008,4 hPa 0,0 l/m 0,3 km/h (0 Bft) SE 0,00 h 0,000 mm 0 W/m 17,9 C 19,1 C 1,1 km/h (1 Bft)
13/06/2007 03:00 19,4 C 93 % 1008,8 hPa 0,0 l/m 0,5 km/h (0 Bft) E-SE 0,00 h 0,000 mm 0 W/m 18,2 C 19,4 C 1,5 km/h (1 Bft)
13/06/2007 04:00 19,2 C 93 % 1008,8 hPa 0,0 l/m 0,0 km/h (0 Bft) N 0,00 h 0,000 mm 0 W/m 18,1 C 19,2 C 0,1 km/h (0 Bft)
13/06/2007 05:00 19,0 C 93 % 1008,6 hPa 0,0 l/m 0,3 km/h (0 Bft) E 0,00 h 0,000 mm 5 W/m 17,8 C 19,0 C 1,1 km/h (0 Bft)
13/06/2007 06:00 18,7 C 93 % 1008,5 hPa 0,0 l/m 1,6 km/h (1 Bft) E 0,00 h 0,000 mm 24 W/m 17,5 C 18,7 C 2,9 km/h (1 Bft)
13/06/2007 07:00 19,3 C 91 % 1008,5 hPa 0,0 l/m 0,1 km/h (0 Bft) NE 0,47 h 0,025 mm 131 W/m 17,9 C 19,3 C 0,6 km/h (0 Bft)
13/06/2007 08:00 21,4 C 82 % 1008,8 hPa 0,0 l/m 2,3 km/h (1 Bft) S 0,72 h 0,076 mm 279 W/m 18,1 C 21,4 C 4,3 km/h (1 Bft)
13/06/2007 09:00 21,9 C 78 % 1008,9 hPa 0,0 l/m 2,6 km/h (1 Bft) S-SE 0,07 h 0,178 mm 222 W/m 17,9 C 21,9 C 5,1 km/h (1 Bft)
13/06/2007 10:00 23,4 C 75 % 1009,0 hPa 0,0 l/m 8,8 km/h (2 Bft) E 0,43 h 0,152 mm 442 W/m 18,7 C 23,4 C 13,5 km/h (3 Bft)
13/06/2007 11:00 23,4 C 76 % 1009,2 hPa 0,0 l/m 11,1 km/h (2 Bft) E 0,33 h 0,330 mm 481 W/m 19,0 C 23,4 C 16,3 km/h (3 Bft)
13/06/2007 12:00 24,2 C 73 % 1009,5 hPa 0,0 l/m 11,7 km/h (2 Bft) E 0,73 h 0,356 mm 705 W/m 19,1 C 24,2 C 17,1 km/h (3 Bft)
13/06/2007 13:00 23,8 C 74 % 1009,4 hPa 0,0 l/m 10,2 km/h (2 Bft) E 0,55 h 0,483 mm 630 W/m 18,8 C 23,8 C 16,0 km/h (3 Bft)
13/06/2007 14:00 23,9 C 73 % 1009,3 hPa 0,0 l/m 9,9 km/h (2 Bft) E 0,65 h 0,432 mm 594 W/m 18,9 C 23,9 C 15,1 km/h (3 Bft)
13/06/2007 15:00 23,5 C 74 % 1009,3 hPa 0,0 l/m 9,9 km/h (2 Bft) E 0,23 h 0,406 mm 353 W/m 18,6 C 23,5 C 15,5 km/h (3 Bft)
13/06/2007 16:00 23,0 C 75 % 1009,1 hPa 0,0 l/m 8,0 km/h (2 Bft) E 0,13 h 0,279 mm 234 W/m 18,4 C 23,0 C 12,0 km/h (2 Bft)
13/06/2007 17:00 21,4 C 81 % 1009,3 hPa 0,0 l/m 3,6 km/h (1 Bft) E 0,00 h 0,178 mm 43 W/m 18,1 C 21,4 C 6,4 km/h (2 Bft)
13/06/2007 18:00 21,5 C 83 % 1009,0 hPa 0,0 l/m 1,5 km/h (1 Bft) NE 0,00 h 0,051 mm 55 W/m 18,5 C 21,5 C 2,9 km/h (1 Bft)
13/06/2007 19:00 21,4 C 83 % 1008,5 hPa 0,0 l/m 1,3 km/h (1 Bft) S-SE 0,00 h 0,051 mm 52 W/m 18,3 C 21,4 C 3,4 km/h (1 Bft)
13/06/2007 20:00 21,1 C 82 % 1008,8 hPa 0,0 l/m 0,5 km/h (0 Bft) S-SE 0,00 h 0,051 mm 12 W/m 17,9 C 21,1 C 1,7 km/h (1 Bft)
13/06/2007 21:00 20,1 C 87 % 1008,6 hPa 0,0 l/m 0,3 km/h (0 Bft) S-SE 0,00 h 0,025 mm 5 W/m 17,8 C 20,1 C 0,7 km/h (0 Bft)
13/06/2007 22:00 19,1 C 90 % 1008,7 hPa 0,0 l/m 0,0 km/h (0 Bft) N 0,00 h 0,000 mm 0 W/m 17,5 C 19,1 C 0,1 km/h (0 Bft)
13/06/2007 23:00 18,6 C 92 % 1008,9 hPa 0,0 l/m 0,2 km/h (0 Bft) S-SO 0,00 h 0,025 mm 0 W/m 17,3 C 18,6 C 0,8 km/h (0 Bft)
14/06/2007 00:00 18,5 C 93 % 1009,3 hPa 0,0 l/m 0,6 km/h (0 Bft) SO 0,00 h 0,000 mm 0 W/m 17,3 C 18,5 C 2,1 km/h (1 Bft)
14/06/2007 01:00 18,0 C 93 % 1009,7 hPa 0,0 l/m 2,5 km/h (1 Bft) N-NE 0,00 h 0,000 mm 0 W/m 16,8 C 18,0 C 4,9 km/h (1 Bft)
14/06/2007 02:00 18,6 C 94 % 1009,9 hPa 0,0 l/m 2,1 km/h (1 Bft) N-NE 0,00 h 0,025 mm 0 W/m 17,5 C 18,6 C 4,3 km/h (1 Bft)
14/06/2007 03:00 18,7 C 93 % 1009,9 hPa 0,0 l/m 1,2 km/h (1 Bft) N 0,00 h 0,025 mm 0 W/m 17,5 C 18,7 C 3,3 km/h (1 Bft)
14/06/2007 04:00 18,3 C 93 % 1009,9 hPa 0,0 l/m 0,1 km/h (0 Bft) N 0,00 h 0,025 mm 0 W/m 17,2 C 18,3 C 0,6 km/h (0 Bft)
14/06/2007 05:00 17,9 C 93 % 1009,9 hPa 0,0 l/m 0,2 km/h (0 Bft) N 0,00 h 0,000 mm 6 W/m 16,7 C 17,9 C 0,3 km/h (0 Bft)
14/06/2007 06:00 17,5 C 93 % 1010,3 hPa 0,0 l/m 1,5 km/h (1 Bft) N-NO 0,02 h 0,000 mm 35 W/m 16,4 C 17,5 C 3,1 km/h (1 Bft)
14/06/2007 07:00 18,4 C 88 % 1010,3 hPa 0,0 l/m 1,5 km/h (1 Bft) N-NO 0,22 h 0,025 mm 106 W/m 16,4 C 18,4 C 3,5 km/h (1 Bft)
14/06/2007 08:00 20,9 C 78 % 1010,3 hPa 0,0 l/m 3,6 km/h (1 Bft) E-NE 0,47 h 0,076 mm 272 W/m 16,9 C 20,9 C 6,2 km/h (2 Bft)
14/06/2007 09:00 23,4 C 71 % 1010,1 hPa 0,0 l/m 6,7 km/h (2 Bft) E-NE 0,98 h 0,178 mm 503 W/m 17,8 C 23,4 C 10,4 km/h (2 Bft)
14/06/2007 10:00 23,8 C 73 % 1010,0 hPa 0,0 l/m 9,1 km/h (2 Bft) E 0,75 h 0,330 mm 605 W/m 18,7 C 23,8 C 14,0 km/h (3 Bft)
14/06/2007 11:00 24,9 C 66 % 1010,4 hPa 0,0 l/m 8,6 km/h (2 Bft) E 0,97 h 0,406 mm 710 W/m 18,1 C 24,9 C 14,1 km/h (3 Bft)
14/06/2007 12:00 25,5 C 64 % 1010,6 hPa 0,0 l/m 9,4 km/h (2 Bft) E 0,95 h 0,508 mm 781 W/m 18,1 C 25,5 C 15,2 km/h (3 Bft)
14/06/2007 13:00 25,6 C 64 % 1010,8 hPa 0,0 l/m 8,2 km/h (2 Bft) E 0,98 h 0,559 mm 703 W/m 18,3 C 25,6 C 13,7 km/h (3 Bft)
14/06/2007 14:00 25,0 C 69 % 1010,9 hPa 0,0 l/m 7,2 km/h (2 Bft) E 0,40 h 0,508 mm 508 W/m 18,9 C 25,0 C 12,2 km/h (2 Bft)
14/06/2007 15:00 24,5 C 72 % 1010,5 hPa 0,0 l/m 6,4 km/h (2 Bft) E 0,63 h 0,356 mm 559 W/m 19,1 C 24,5 C 11,8 km/h (2 Bft)
14/06/2007 16:00 23,1 C 78 % 1010,1 hPa 0,0 l/m 6,4 km/h (2 Bft) E 0,27 h 0,381 mm 355 W/m 19,0 C 23,1 C 11,2 km/h (2 Bft)
14/06/2007 17:00 22,9 C 78 % 1009,9 hPa 0,0 l/m 5,7 km/h (1 Bft) E 0,40 h 0,254 mm 306 W/m 18,8 C 22,9 C 9,7 km/h (2 Bft)
14/06/2007 18:00 22,3 C 79 % 1009,5 hPa 0,0 l/m 3,8 km/h (1 Bft) E 0,17 h 0,203 mm 212 W/m 18,5 C 22,3 C 6,8 km/h (2 Bft)
14/06/2007 19:00 22,2 C 80 % 1009,3 hPa 0,0 l/m 3,4 km/h (1 Bft) E-NE 0,43 h 0,152 mm 157 W/m 18,5 C 22,2 C 5,2 km/h (1 Bft)
14/06/2007 20:00 21,4 C 82 % 1009,2 hPa 0,0 l/m 0,8 km/h (0 Bft) E-NE 0,00 h 0,102 mm 36 W/m 18,2 C 21,4 C 1,9 km/h (1 Bft)
14/06/2007 21:00 20,1 C 86 % 1009,1 hPa 0,0 l/m 1,5 km/h (1 Bft) E 0,00 h 0,025 mm 7 W/m 17,7 C 20,1 C 3,3 km/h (1 Bft)
14/06/2007 22:00 19,5 C 88 % 1009,3 hPa 0,0 l/m 0,1 km/h (0 Bft) NE 0,00 h 0,000 mm 0 W/m 17,5 C 19,5 C 0,3 km/h (0 Bft)
14/06/2007 23:00 19,0 C 90 % 1009,6 hPa 0,0 l/m 0,2 km/h (0 Bft) E-NE 0,00 h 0,025 mm 0 W/m 17,4 C 19,0 C 0,7 km/h (0 Bft)
15/06/2007 00:00 19,4 C 91 % 1009,5 hPa 0,0 l/m 0,2 km/h (0 Bft) NE 0,00 h 0,025 mm 0 W/m 17,9 C 19,4 C 0,8 km/h (0 Bft)
15/06/2007 01:00 18,9 C 92 % 1009,1 hPa 0,0 l/m 1,1 km/h (0 Bft) N-NE 0,00 h 0,025 mm 0 W/m 17,6 C 18,9 C 2,6 km/h (1 Bft)
15/06/2007 02:00 18,3 C 92 % 1008,8 hPa 0,0 l/m 0,3 km/h (0 Bft) NO 0,00 h 0,025 mm 0 W/m 17,0 C 18,3 C 0,5 km/h (0 Bft)
15/06/2007 03:00 18,1 C 92 % 1008,4 hPa 0,0 l/m 0,1 km/h (0 Bft) NO 0,00 h 0,000 mm 0 W/m 16,8 C 18,1 C 0,6 km/h (0 Bft)
15/06/2007 04:00 17,8 C 91 % 1008,3 hPa 0,0 l/m 2,1 km/h (1 Bft) NO 0,00 h 0,000 mm 0 W/m 16,3 C 17,8 C 4,1 km/h (1 Bft)
15/06/2007 05:00 17,6 C 90 % 1008,1 hPa 0,0 l/m 1,2 km/h (1 Bft) N-NO 0,00 h 0,025 mm 0 W/m 15,9 C 17,6 C 2,8 km/h (1 Bft)
15/06/2007 06:00 18,1 C 88 % 1008,0 hPa 0,0 l/m 1,0 km/h (0 Bft) N 0,28 h 0,000 mm 53 W/m 16,0 C 18,1 C 2,3 km/h (1 Bft)
15/06/2007 07:00 19,5 C 84 % 1007,6 hPa 0,0 l/m 1,4 km/h (1 Bft) N 0,20 h 0,025 mm 93 W/m 16,8 C 19,5 C 3,6 km/h (1 Bft)
15/06/2007 08:00 21,0 C 80 % 1007,8 hPa 0,0 l/m 4,1 km/h (1 Bft) E-NE 0,25 h 0,051 mm 197 W/m 17,5 C 21,0 C 6,2 km/h (2 Bft)
15/06/2007 09:00 21,5 C 79 % 1007,7 hPa 0,0 l/m 5,0 km/h (1 Bft) E 0,02 h 0,127 mm 128 W/m 17,6 C 21,5 C 7,9 km/h (2 Bft)
15/06/2007 10:00 21,1 C 86 % 1007,2 hPa 0,2 l/m 12,8 km/h (3 Bft) E 0,08 h 0,102 mm 134 W/m 18,7 C 21,1 C 18,0 km/h (3 Bft)
15/06/2007 11:00 20,3 C 93 % 1007,3 hPa 2,0 l/m 9,1 km/h (2 Bft) SO 0,00 h 0,127 mm 173 W/m 19,1 C 20,3 C 13,2 km/h (3 Bft)
15/06/2007 12:00 17,9 C 93 % 1007,7 hPa 16,0 l/m 10,8 km/h (2 Bft) S-SE 0,00 h 0,102 mm 92 W/m 16,8 C 17,9 C 15,7 km/h (3 Bft)
15/06/2007 13:00 18,0 C 97 % 1007,9 hPa 0,0 l/m 3,3 km/h (1 Bft) NE 0,02 h 0,076 mm 265 W/m 17,5 C 18,0 C 5,7 km/h (1 Bft)
15/06/2007 14:00 19,8 C 91 % 1007,5 hPa 0,0 l/m 0,8 km/h (0 Bft) SE 0,92 h 0,152 mm 654 W/m 18,2 C 19,8 C 1,9 km/h (1 Bft)
15/06/2007 15:00 22,9 C 73 % 1006,7 hPa 0,0 l/m 5,0 km/h (1 Bft) S-SO 1,00 h 0,406 mm 784 W/m 17,7 C 22,9 C 8,6 km/h (2 Bft)
15/06/2007 16:00 24,5 C 68 % 1006,3 hPa 0,0 l/m 6,1 km/h (2 Bft) E 1,00 h 0,508 mm 717 W/m 18,2 C 24,5 C 10,7 km/h (2 Bft)
15/06/2007 17:00 23,9 C 72 % 1006,3 hPa 0,0 l/m 7,6 km/h (2 Bft) E 0,82 h 0,457 mm 485 W/m 18,6 C 23,9 C 11,6 km/h (2 Bft)
15/06/2007 18:00 24,0 C 67 % 1006,1 hPa 0,0 l/m 10,0 km/h (2 Bft) S 0,85 h 0,330 mm 347 W/m 17,4 C 24,0 C 14,0 km/h (3 Bft)
15/06/2007 19:00 23,9 C 67 % 1006,0 hPa 0,0 l/m 4,9 km/h (1 Bft) S-SO 1,00 h 0,279 mm 209 W/m 17,3 C 23,9 C 7,5 km/h (2 Bft)
15/06/2007 20:00 23,0 C 72 % 1006,0 hPa 0,0 l/m 0,5 km/h (0 Bft) SO 0,18 h 0,152 mm 44 W/m 17,6 C 23,0 C 1,6 km/h (1 Bft)
15/06/2007 21:00 20,4 C 83 % 1006,4 hPa 0,0 l/m 0,9 km/h (0 Bft) N-NE 0,00 h 0,025 mm 7 W/m 17,3 C 20,4 C 2,4 km/h (1 Bft)
15/06/2007 22:00 19,4 C 87 % 1006,9 hPa 0,0 l/m 2,2 km/h (1 Bft) NO 0,00 h 0,000 mm 0 W/m 17,2 C 19,4 C 3,7 km/h (1 Bft)
15/06/2007 23:00 18,6 C 78 % 1007,2 hPa 0,0 l/m 3,1 km/h (1 Bft) O-NO 0,00 h 0,025 mm 0 W/m 14,6 C 18,6 C 4,6 km/h (1 Bft)
16/06/2007 00:00 18,7 C 69 % 1007,3 hPa 0,0 l/m 5,7 km/h (1 Bft) NO 0,00 h 0,025 mm 0 W/m 12,8 C 18,7 C 9,7 km/h (2 Bft)
16/06/2007 01:00 20,1 C 60 % 1007,2 hPa 0,0 l/m 21,6 km/h (4 Bft) O-SO 0,00 h 0,051 mm 0 W/m 12,0 C 20,1 C 28,9 km/h (5 Bft)
16/06/2007 02:00 19,3 C 64 % 1007,1 hPa 0,0 l/m 24,0 km/h (4 Bft) O-SO 0,00 h 0,127 mm 0 W/m 12,3 C 19,3 C 30,7 km/h (5 Bft)
16/06/2007 03:00 18,8 C 65 % 1006,8 hPa 0,0 l/m 20,5 km/h (4 Bft) O-SO 0,00 h 0,127 mm 0 W/m 12,1 C 18,8 C 26,4 km/h (4 Bft)
16/06/2007 04:00 18,7 C 66 % 1007,0 hPa 0,0 l/m 19,8 km/h (4 Bft) O-SO 0,00 h 0,102 mm 0 W/m 12,1 C 18,7 C 25,8 km/h (4 Bft)
16/06/2007 05:00 18,6 C 63 % 1007,3 hPa 0,0 l/m 13,0 km/h (3 Bft) O-SO 0,00 h 0,102 mm 7 W/m 11,5 C 18,6 C 18,4 km/h (3 Bft)
16/06/2007 06:00 18,9 C 59 % 1007,7 hPa 0,0 l/m 10,3 km/h (2 Bft) O-SO 0,05 h 0,076 mm 26 W/m 10,7 C 18,9 C 14,8 km/h (3 Bft)
16/06/2007 07:00 19,8 C 58 % 1008,1 hPa 0,0 l/m 1,7 km/h (1 Bft) S-SE 0,48 h 0,076 mm 139 W/m 11,4 C 19,8 C 3,7 km/h (1 Bft)
16/06/2007 08:00 21,2 C 58 % 1008,7 hPa 0,0 l/m 4,0 km/h (1 Bft) SO 0,88 h 0,102 mm 346 W/m 12,6 C 21,2 C 7,0 km/h (2 Bft)
16/06/2007 09:00 23,0 C 52 % 1009,0 hPa 0,0 l/m 13,9 km/h (3 Bft) O-SO 1,00 h 0,229 mm 547 W/m 12,5 C 23,0 C 19,0 km/h (3 Bft)
16/06/2007 10:00 25,0 C 45 % 1009,0 hPa 0,0 l/m 17,5 km/h (3 Bft) SO 1,00 h 0,432 mm 692 W/m 12,2 C 25,0 C 23,1 km/h (4 Bft)
16/06/2007 11:00 26,7 C 36 % 1008,9 hPa 0,0 l/m 20,2 km/h (4 Bft) SO 1,00 h 0,584 mm 808 W/m 10,2 C 26,7 C 26,6 km/h (4 Bft)
16/06/2007 12:00 28,1 C 29 % 1008,9 hPa 0,0 l/m 19,3 km/h (3 Bft) SO 1,00 h 0,737 mm 863 W/m 8,3 C 28,1 C 26,3 km/h (4 Bft)
16/06/2007 13:00 29,0 C 25 % 1008,6 hPa 0,0 l/m 23,1 km/h (4 Bft) SO 1,00 h 0,787 mm 841 W/m 7,1 C 29,0 C 32,1 km/h (5 Bft)
16/06/2007 14:00 27,8 C 33 % 1008,4 hPa 0,0 l/m 25,9 km/h (4 Bft) SO 0,75 h 0,838 mm 596 W/m 9,5 C 27,8 C 34,2 km/h (5 Bft)
16/06/2007 15:00 25,5 C 42 % 1008,6 hPa 0,0 l/m 29,6 km/h (5 Bft) S-SO 0,32 h 0,686 mm 441 W/m 11,7 C 25,5 C 39,4 km/h (6 Bft)
16/06/2007 16:00 24,9 C 46 % 1008,6 hPa 0,0 l/m 29,0 km/h (5 Bft) S-SO 0,65 h 0,559 mm 514 W/m 12,5 C 24,9 C 38,5 km/h (5 Bft)
16/06/2007 17:00 26,2 C 40 % 1008,4 hPa 0,0 l/m 28,1 km/h (4 Bft) S-SO 0,75 h 0,559 mm 456 W/m 11,6 C 26,2 C 36,7 km/h (5 Bft)
16/06/2007 18:00 26,1 C 37 % 1008,4 hPa 0,0 l/m 25,3 km/h (4 Bft) SO 0,85 h 0,559 mm 407 W/m 10,2 C 26,1 C 34,2 km/h (5 Bft)
16/06/2007 19:00 25,3 C 37 % 1008,5 hPa 0,0 l/m 18,7 km/h (3 Bft) SO 0,80 h 0,508 mm 199 W/m 9,6 C 25,3 C 25,4 km/h (4 Bft)
16/06/2007 20:00 23,6 C 40 % 1008,8 hPa 0,0 l/m 18,4 km/h (3 Bft) O-SO 0,00 h 0,330 mm 32 W/m 9,1 C 23,6 C 25,1 km/h (4 Bft)
16/06/2007 21:00 21,9 C 45 % 1009,1 hPa 0,0 l/m 11,8 km/h (2 Bft) O-SO 0,00 h 0,203 mm 6 W/m 9,5 C 21,9 C 16,7 km/h (3 Bft)
16/06/2007 22:00 20,9 C 49 % 1009,3 hPa 0,0 l/m 10,7 km/h (2 Bft) O-SO 0,00 h 0,102 mm 0 W/m 9,8 C 20,9 C 14,5 km/h (3 Bft)
16/06/2007 23:00 20,0 C 54 % 1009,7 hPa 0,0 l/m 2,4 km/h (1 Bft) NO 0,00 h 0,102 mm 0 W/m 10,3 C 20,0 C 4,3 km/h (1 Bft)
17/06/2007 00:00 19,0 C 61 % 1010,1 hPa 0,0 l/m 2,6 km/h (1 Bft) O 0,00 h 0,051 mm 0 W/m 11,2 C 19,0 C 4,4 km/h (1 Bft)
17/06/2007 01:00 18,1 C 65 % 1009,9 hPa 0,0 l/m 2,1 km/h (1 Bft) NO 0,00 h 0,051 mm 0 W/m 11,5 C 18,1 C 3,6 km/h (1 Bft)
17/06/2007 02:00 17,7 C 67 % 1009,9 hPa 0,0 l/m 0,4 km/h (0 Bft) N-NO 0,00 h 0,051 mm 0 W/m 11,4 C 17,7 C 0,8 km/h (0 Bft)
17/06/2007 03:00 17,6 C 66 % 1009,9 hPa 0,0 l/m 3,4 km/h (1 Bft) O-NO 0,00 h 0,025 mm 0 W/m 11,1 C 17,6 C 4,9 km/h (1 Bft)
17/06/2007 04:00 17,7 C 64 % 1009,6 hPa 0,0 l/m 1,9 km/h (1 Bft) O-NO 0,00 h 0,051 mm 0 W/m 10,8 C 17,7 C 3,3 km/h (1 Bft)
17/06/2007 05:00 17,0 C 68 % 1009,7 hPa 0,0 l/m 2,0 km/h (1 Bft) O 0,00 h 0,051 mm 6 W/m 11,1 C 17,0 C 3,1 km/h (1 Bft)
17/06/2007 06:00 17,1 C 69 % 1010,1 hPa 0,0 l/m 3,6 km/h (1 Bft) O-SO 0,03 h 0,025 mm 24 W/m 11,3 C 17,1 C 5,2 km/h (1 Bft)
17/06/2007 07:00 17,9 C 67 % 1010,6 hPa 0,0 l/m 0,6 km/h (0 Bft) O-SO 0,23 h 0,025 mm 119 W/m 11,7 C 17,9 C 1,5 km/h (1 Bft)
17/06/2007 08:00 20,6 C 59 % 1011,5 hPa 0,0 l/m 3,0 km/h (1 Bft) NE 0,93 h 0,076 mm 358 W/m 12,3 C 20,6 C 5,4 km/h (1 Bft)
17/06/2007 09:00 22,5 C 57 % 1011,9 hPa 0,0 l/m 2,5 km/h (1 Bft) NE 0,87 h 0,229 mm 429 W/m 13,4 C 22,5 C 4,6 km/h (1 Bft)
17/06/2007 10:00 23,6 C 56 % 1011,9 hPa 0,0 l/m 2,2 km/h (1 Bft) N 0,53 h 0,279 mm 441 W/m 14,3 C 23,6 C 4,9 km/h (1 Bft)
17/06/2007 11:00 24,0 C 60 % 1011,9 hPa 0,0 l/m 5,4 km/h (1 Bft) E 0,02 h 0,305 mm 383 W/m 15,7 C 24,0 C 8,8 km/h (2 Bft)
17/06/2007 12:00 22,1 C 73 % 1012,7 hPa 0,0 l/m 6,7 km/h (2 Bft) E 0,00 h 0,279 mm 177 W/m 16,9 C 22,1 C 9,9 km/h (2 Bft)
17/06/2007 13:00 21,0 C 84 % 1013,3 hPa 0,2 l/m 4,3 km/h (1 Bft) E 0,00 h 0,152 mm 130 W/m 18,2 C 21,0 C 7,1 km/h (2 Bft)
17/06/2007 14:00 20,3 C 92 % 1013,3 hPa 0,2 l/m 2,0 km/h (1 Bft) NE 0,00 h 0,102 mm 101 W/m 19,0 C 20,3 C 3,6 km/h (1 Bft)
17/06/2007 15:00 21,2 C 92 % 1012,9 hPa 0,0 l/m 3,4 km/h (1 Bft) NE 0,08 h 0,076 mm 338 W/m 19,8 C 21,2 C 5,7 km/h (1 Bft)
17/06/2007 16:00 21,9 C 87 % 1012,6 hPa 0,0 l/m 3,5 km/h (1 Bft) E 0,02 h 0,203 mm 285 W/m 19,7 C 21,9 C 6,2 km/h (2 Bft)
17/06/2007 17:00 21,5 C 88 % 1012,5 hPa 0,0 l/m 4,6 km/h (1 Bft) E 0,00 h 0,178 mm 243 W/m 19,5 C 21,5 C 7,4 km/h (2 Bft)
17/06/2007 18:00 21,3 C 89 % 1012,3 hPa 0,0 l/m 4,6 km/h (1 Bft) E 0,18 h 0,152 mm 180 W/m 19,3 C 21,3 C 6,8 km/h (2 Bft)
17/06/2007 19:00 21,1 C 88 % 1011,8 hPa 0,0 l/m 2,6 km/h (1 Bft) E 0,07 h 0,127 mm 95 W/m 19,0 C 21,1 C 4,9 km/h (1 Bft)
17/06/2007 20:00 20,1 C 91 % 1012,1 hPa 0,0 l/m 1,0 km/h (0 Bft) S-SE 0,00 h 0,076 mm 38 W/m 18,6 C 20,1 C 2,3 km/h (1 Bft)
17/06/2007 21:00 19,5 C 93 % 1012,3 hPa 0,0 l/m 0,1 km/h (0 Bft) S-SE 0,00 h 0,025 mm 5 W/m 18,3 C 19,5 C 0,4 km/h (0 Bft)
17/06/2007 22:00 19,0 C 95 % 1012,6 hPa 0,0 l/m 0,1 km/h (0 Bft) S-SE 0,00 h 0,000 mm 0 W/m 18,1 C 19,0 C 0,2 km/h (0 Bft)
17/06/2007 23:00 18,9 C 96 % 1012,7 hPa 0,2 l/m 0,9 km/h (0 Bft) S-SE 0,00 h 0,000 mm 0 W/m 18,2 C 18,9 C 1,7 km/h (1 Bft)
Min-Date _ 15/06/07 16/06/07 15/06/07 - 11/06/07 - - - - 16/06/07 15/06/07 11/06/07
_ Min-Heure 12:35 13:29 20:15 - 00:00 - - - - 13:56 12:35 00:00
Minimum _ 16,5 C 24 % 1005,9 hPa - 0,0 km/h (0 Bft) - - - - 6,2 C 16,5 C 0,0 km/h (0 Bft)
Max-Date _ 16/06/07 15/06/07 17/06/07 15/06/07 15/06/07 - 11/06/07 16/06/07 13/06/07 17/06/07 16/06/07 15/06/07
_ Max-Heure 13:50 13:00 13:45 12:19 12:19 - 06:01 14:00 14:09 16:10 13:50 12:17
Maximum _ 29,3 C 97 % 1013,4 hPa 16,0 l/m 43,5 km/h
S-SE (6 Bft)
- 0,02 h 0,838 mm 1097 W/m 20,4 C 29,3 C 61,2 km/h
S-SE (7 Bft)
Moyenne _ 21,1 C 76 % 1009,6 hPa #18,8 l/m 5,7 km/h (1 Bft) E #49:48 h #30,239 mm 321 W/m 16,4 C 21,1 C 8,7 km/h (2 Bft)
Roquefort les pins